createdAt,value
2022-08-22T00:17:41.442Z,53
2022-08-22T00:32:41.411Z,54
2022-08-22T00:47:41.405Z,54
2022-08-22T01:02:41.368Z,56
2022-08-22T01:17:41.347Z,57
2022-08-22T01:32:41.312Z,58
2022-08-22T01:47:41.292Z,60
2022-08-22T02:02:41.291Z,62
2022-08-22T02:17:41.234Z,62
2022-08-22T02:32:41.250Z,63
2022-08-22T02:47:41.183Z,64
2022-08-22T03:02:41.188Z,65
2022-08-22T03:17:41.132Z,66
2022-08-22T03:32:41.140Z,67
2022-08-22T03:47:41.084Z,68
2022-08-22T04:02:43.131Z,69
2022-08-22T04:17:41.031Z,70
2022-08-22T04:32:41.047Z,70
2022-08-22T04:47:40.996Z,70
2022-08-22T05:02:40.992Z,70
2022-08-22T05:17:40.937Z,71
2022-08-22T05:32:40.939Z,71
2022-08-22T05:47:40.891Z,68
2022-08-22T06:02:40.891Z,65
2022-08-22T06:17:40.828Z,60
2022-08-22T06:32:59.268Z,57
2022-08-22T06:47:40.779Z,54
2022-08-22T07:02:40.777Z,53
2022-08-22T07:17:40.769Z,50
2022-08-22T07:32:40.731Z,48
2022-08-22T07:47:40.664Z,46
2022-08-22T08:02:40.672Z,44
2022-08-22T08:17:40.623Z,42
2022-08-22T08:32:40.624Z,41
2022-08-22T08:47:40.567Z,40
2022-08-22T09:02:40.564Z,41
2022-08-22T09:32:40.512Z,46
2022-08-22T09:47:40.483Z,48
2022-08-22T10:02:43.624Z,49
2022-08-22T10:17:41.078Z,50
2022-08-22T10:32:40.401Z,52
2022-08-22T10:47:40.376Z,52
2022-08-22T11:02:44.729Z,52
2022-08-22T11:17:44.788Z,52
2022-08-22T11:47:40.241Z,51
2022-08-22T12:02:40.276Z,50
2022-08-22T12:17:54.892Z,49
2022-08-22T12:32:43.816Z,49
2022-08-22T12:47:42.170Z,48
2022-08-22T13:02:40.126Z,48
2022-08-22T13:17:40.076Z,47
2022-08-22T13:32:40.049Z,47
2022-08-22T13:47:40.048Z,46
2022-08-22T14:02:43.431Z,45
2022-08-22T14:17:42.655Z,44
2022-08-22T14:32:41.889Z,44
2022-08-22T14:48:13.926Z,44
2022-08-22T15:02:39.875Z,44
2022-08-22T15:17:39.852Z,44
2022-08-22T15:32:41.942Z,43
2022-08-22T15:47:39.801Z,44
2022-08-22T16:02:39.827Z,44
2022-08-22T16:17:39.742Z,44
2022-08-22T16:32:39.742Z,44
2022-08-22T16:47:39.685Z,44
2022-08-22T17:02:39.699Z,44
2022-08-22T17:17:39.630Z,44
2022-08-22T17:32:39.638Z,44
2022-08-22T17:47:39.577Z,44
2022-08-22T18:02:39.621Z,44
2022-08-22T18:17:39.527Z,44
2022-08-22T18:32:39.523Z,44
2022-08-22T18:47:39.464Z,43
2022-08-22T19:02:39.469Z,43
2022-08-22T19:17:39.412Z,42
2022-08-22T19:32:39.413Z,42
2022-08-22T19:47:39.372Z,42
2022-08-22T20:02:39.366Z,43
2022-08-22T20:17:39.307Z,43
2022-08-22T20:32:39.315Z,43
2022-08-22T20:47:41.771Z,44
2022-08-22T21:02:39.249Z,45
2022-08-22T21:17:39.611Z,47
2022-08-22T21:32:39.197Z,48
2022-08-22T21:47:39.143Z,50
2022-08-22T22:02:39.660Z,51
2022-08-22T22:17:39.085Z,52
2022-08-22T22:32:39.098Z,53
2022-08-22T22:47:39.043Z,53
2022-08-22T23:02:39.027Z,54
2022-08-22T23:17:38.971Z,55
2022-08-22T23:32:38.975Z,55
2022-08-22T23:47:38.957Z,55
